createdAt,value
2023-01-01T00:00:52.611Z,59.85
2023-01-01T00:04:25.275Z,64.28
2023-01-01T00:10:52.409Z,70.47
2023-01-01T00:17:24.968Z,78.82
2023-01-01T00:20:26.651Z,84.32
2023-01-01T00:23:35.295Z,82.18
2023-01-01T00:45:50.566Z,65.80
2023-01-01T00:48:58.663Z,67.18
2023-01-01T00:52:41.956Z,66.43
2023-01-01T00:55:42.106Z,53.72
2023-01-01T00:58:42.842Z,43.35
2023-01-01T01:01:45.720Z,35.60
2023-01-01T01:04:43.158Z,26.83
2023-01-01T01:07:50.723Z,24.83
2023-01-01T01:17:40.793Z,23.20
2023-01-01T01:28:52.254Z,30.80
2023-01-01T01:31:47.102Z,29.23
2023-01-01T01:34:47.869Z,28.40
2023-01-01T01:37:47.380Z,27.52
2023-01-01T01:41:29.022Z,26.13
2023-01-01T01:45:11.078Z,25.85
2023-01-01T01:48:43.477Z,23.55
2023-01-01T02:03:27.571Z,22.17
2023-01-01T02:06:21.734Z,21.27
2023-01-01T02:09:28.052Z,19.90
2023-01-01T02:12:24.399Z,20.30
2023-01-01T02:15:53.200Z,20.05
2023-01-01T02:19:16.349Z,18.33
2023-01-01T02:32:48.787Z,16.48
2023-01-01T02:40:07.130Z,15.55
2023-01-01T02:43:37.005Z,14.05
2023-01-01T02:46:41.469Z,15.02
2023-01-01T02:49:36.343Z,14.23
2023-01-01T02:52:39.435Z,14.40
2023-01-01T02:56:20.352Z,15.35
2023-01-01T02:59:53.319Z,15.75
2023-01-01T03:02:52.656Z,14.85
2023-01-01T03:06:23.280Z,15.57
2023-01-01T03:09:50.834Z,14.85
2023-01-01T03:13:11.543Z,14.40
2023-01-01T03:20:27.654Z,15.45
2023-01-01T03:26:35.460Z,14.00
2023-01-01T03:29:35.492Z,14.43
2023-01-01T03:32:55.668Z,14.15
2023-01-01T03:35:49.577Z,14.10
2023-01-01T03:38:54.668Z,15.00
2023-01-01T03:41:55.175Z,16.35
2023-01-01T03:45:16.290Z,14.88
2023-01-01T03:48:14.175Z,15.00
2023-01-01T03:52:48.369Z,15.60
2023-01-01T03:59:24.421Z,15.57
2023-01-01T04:02:35.438Z,15.15
2023-01-01T04:05:47.518Z,15.40
2023-01-01T04:08:35.999Z,15.73
2023-01-01T04:11:45.385Z,16.70
2023-01-01T04:18:00.402Z,15.00
2023-01-01T04:20:59.833Z,14.65
2023-01-01T04:23:52.023Z,13.75
2023-01-01T04:26:44.740Z,14.13
2023-01-01T04:29:34.146Z,15.57
2023-01-01T04:32:21.011Z,14.27
2023-01-01T04:35:19.107Z,15.20
2023-01-01T04:38:08.897Z,13.18
2023-01-01T04:41:04.757Z,12.52
2023-01-01T04:44:07.717Z,11.32
2023-01-01T04:47:15.465Z,12.05
2023-01-01T04:50:19.946Z,12.30
2023-01-01T04:53:07.079Z,12.60
2023-01-01T04:55:54.004Z,11.10
2023-01-01T04:58:56.371Z,12.70
2023-01-01T05:01:53.144Z,11.80
2023-01-01T05:04:47.619Z,10.80
2023-01-01T05:07:47.098Z,9.90
2023-01-01T05:10:39.711Z,9.57
2023-01-01T05:13:44.054Z,9.45
2023-01-01T05:20:25.061Z,10.07
2023-01-01T05:24:46.510Z,13.20
2023-01-01T05:27:48.809Z,13.77
2023-01-01T05:30:43.470Z,14.18
2023-01-01T05:33:47.810Z,16.65
2023-01-01T05:36:45.827Z,18.58
2023-01-01T05:39:44.755Z,18.55
2023-01-01T05:42:35.028Z,18.73
2023-01-01T05:49:55.874Z,15.90
2023-01-01T05:53:14.312Z,17.10
2023-01-01T05:56:19.935Z,16.17
2023-01-01T06:00:14.765Z,14.10
2023-01-01T06:14:30.263Z,12.35
2023-01-01T06:17:29.194Z,11.75
2023-01-01T06:20:21.248Z,13.05
2023-01-01T06:23:08.190Z,13.23
2023-01-01T06:26:00.683Z,15.40
2023-01-01T06:28:48.369Z,16.67
2023-01-01T06:31:40.773Z,15.15
2023-01-01T06:34:30.941Z,14.68
2023-01-01T06:37:22.159Z,14.25
2023-01-01T06:40:17.659Z,13.65
2023-01-01T06:46:51.010Z,13.05
2023-01-01T06:49:37.726Z,13.68
2023-01-01T06:52:24.514Z,13.68
2023-01-01T06:55:11.214Z,15.93
2023-01-01T06:57:59.126Z,15.90
2023-01-01T07:03:35.105Z,17.55
2023-01-01T07:06:22.903Z,17.15
2023-01-01T07:09:11.097Z,17.00
2023-01-01T07:11:57.789Z,17.45
2023-01-01T07:14:44.523Z,16.73
2023-01-01T07:17:31.325Z,17.02
2023-01-01T07:20:18.053Z,17.95
2023-01-01T07:23:04.767Z,16.48
2023-01-01T07:25:52.905Z,18.88
2023-01-01T07:28:39.616Z,19.02
2023-01-01T07:31:26.629Z,20.45
2023-01-01T07:34:16.146Z,19.35
2023-01-01T07:37:02.880Z,19.23
2023-01-01T07:39:49.589Z,18.80
2023-01-01T07:42:36.293Z,20.88
2023-01-01T07:45:23.045Z,23.70
2023-01-01T07:48:14.925Z,22.17
2023-01-01T07:51:01.793Z,19.10
2023-01-01T07:53:48.591Z,19.25
2023-01-01T07:56:36.168Z,19.05
2023-01-01T07:59:22.938Z,18.17
2023-01-01T08:02:12.784Z,17.27
2023-01-01T08:04:59.572Z,16.30
2023-01-01T08:07:48.237Z,15.98
2023-01-01T08:10:34.979Z,16.73
2023-01-01T08:13:21.676Z,17.50
2023-01-01T08:16:08.905Z,17.10
2023-01-01T08:18:55.725Z,16.17
2023-01-01T08:21:42.989Z,15.30
2023-01-01T08:24:29.764Z,15.15
2023-01-01T08:27:17.332Z,14.38
2023-01-01T08:30:04.541Z,16.08
2023-01-01T08:32:51.280Z,17.73
2023-01-01T08:35:41.639Z,15.57
2023-01-01T08:38:28.411Z,15.77
2023-01-01T08:41:15.176Z,14.27
2023-01-01T08:44:01.899Z,15.15
2023-01-01T08:46:48.645Z,15.80
2023-01-01T08:49:35.368Z,15.95
2023-01-01T08:52:22.392Z,15.82
2023-01-01T08:55:09.705Z,16.57
2023-01-01T08:57:56.375Z,18.20
2023-01-01T09:00:43.149Z,18.55
2023-01-01T09:03:30.034Z,19.60
2023-01-01T09:06:16.863Z,18.87
2023-01-01T09:09:03.589Z,20.83
2023-01-01T09:11:52.439Z,22.23
2023-01-01T09:14:39.150Z,22.08
2023-01-01T09:17:25.929Z,21.98
2023-01-01T09:20:12.634Z,34.90
2023-01-01T09:23:05.615Z,33.85
2023-01-01T09:25:52.757Z,32.97
2023-01-01T09:28:41.056Z,33.15
2023-01-01T09:31:27.851Z,34.67
2023-01-01T09:34:15.221Z,28.33
2023-01-01T09:37:01.950Z,30.92
2023-01-01T09:39:48.685Z,28.90
2023-01-01T09:42:53.764Z,29.13
2023-01-01T09:46:00.596Z,26.15
2023-01-01T09:48:58.865Z,29.27
2023-01-01T09:51:57.904Z,23.33
2023-01-01T09:54:51.481Z,34.00
2023-01-01T09:57:39.011Z,33.92
2023-01-01T10:00:26.824Z,34.47
2023-01-01T10:03:29.350Z,29.65
2023-01-01T10:06:21.249Z,32.67
2023-01-01T10:09:22.718Z,30.35
2023-01-01T10:12:21.167Z,37.17
2023-01-01T10:18:35.943Z,25.73
2023-01-01T10:21:46.565Z,26.55
2023-01-01T10:24:43.140Z,24.95
2023-01-01T10:27:35.886Z,26.50
2023-01-01T10:30:24.160Z,201.63
2023-01-01T10:33:15.042Z,394.02
2023-01-01T10:36:02.042Z,115.80
2023-01-01T10:38:51.060Z,146.27
2023-01-01T10:41:37.834Z,33.83
2023-01-01T10:44:31.995Z,20.85
2023-01-01T10:47:28.570Z,14.55
2023-01-01T10:50:17.029Z,7.25
2023-01-01T10:53:03.860Z,5.80
2023-01-01T10:55:57.997Z,4.28
2023-01-01T10:58:54.719Z,3.30
2023-01-01T11:01:43.168Z,3.17
2023-01-01T11:04:29.957Z,2.92
2023-01-01T11:07:32.014Z,3.17
2023-01-01T11:10:24.017Z,3.20
2023-01-01T11:13:22.032Z,2.58
2023-01-01T11:16:11.549Z,2.30
2023-01-01T11:19:06.719Z,2.58
2023-01-01T11:21:53.811Z,2.30
2023-01-01T11:24:40.624Z,2.40
2023-01-01T11:30:23.192Z,2.50
2023-01-01T11:33:16.508Z,2.25
2023-01-01T11:36:04.564Z,2.35
2023-01-01T11:39:22.405Z,1.90
2023-01-01T11:42:09.234Z,2.58
2023-01-01T11:47:50.644Z,2.50
2023-01-01T11:50:40.898Z,3.10
2023-01-01T11:53:31.772Z,4.43
2023-01-01T11:56:21.073Z,3.78
2023-01-01T11:59:23.003Z,2.70
2023-01-01T12:02:15.546Z,2.38
2023-01-01T12:05:31.045Z,2.65
2023-01-01T12:08:40.122Z,2.80
2023-01-01T12:11:54.052Z,2.22
2023-01-01T12:14:49.836Z,2.60
2023-01-01T12:17:59.016Z,2.38
2023-01-01T12:20:57.344Z,2.60
2023-01-01T12:23:45.999Z,2.60
2023-01-01T12:26:53.217Z,1.73
2023-01-01T12:30:04.014Z,1.70
2023-01-01T12:33:20.107Z,1.90
2023-01-01T12:36:40.992Z,1.90
2023-01-01T12:39:30.728Z,1.90
2023-01-01T12:42:22.011Z,2.15
2023-01-01T12:45:37.674Z,2.08
2023-01-01T12:48:48.018Z,2.42
2023-01-01T12:52:07.086Z,3.03
2023-01-01T12:55:24.036Z,2.42
2023-01-01T12:58:27.056Z,2.50
2023-01-01T13:01:28.301Z,2.80
2023-01-01T13:04:20.486Z,2.88
2023-01-01T13:07:14.035Z,3.22
2023-01-01T13:10:27.632Z,2.75
2023-01-01T13:13:17.001Z,3.30
2023-01-01T13:16:03.968Z,2.95
2023-01-01T13:18:52.756Z,3.08
2023-01-01T13:21:41.938Z,3.28
2023-01-01T13:24:30.080Z,3.20
2023-01-01T13:27:56.076Z,2.90
2023-01-01T13:30:44.038Z,3.35
2023-01-01T13:33:33.268Z,3.28
2023-01-01T13:36:23.046Z,3.60
2023-01-01T13:39:09.825Z,3.47
2023-01-01T13:41:58.039Z,3.50
2023-01-01T13:44:44.773Z,3.13
2023-01-01T13:47:52.965Z,3.30
2023-01-01T13:50:58.366Z,3.00
2023-01-01T13:54:26.540Z,3.72
2023-01-01T13:57:44.741Z,3.15
2023-01-01T14:00:38.077Z,3.20
2023-01-01T14:03:26.517Z,3.10
2023-01-01T14:06:44.975Z,3.35
2023-01-01T14:09:31.731Z,3.75
2023-01-01T14:12:21.975Z,3.78
2023-01-01T14:15:27.019Z,3.13
2023-01-01T14:18:19.000Z,3.10
2023-01-01T14:21:17.270Z,3.10
2023-01-01T14:24:08.013Z,3.50
2023-01-01T14:26:55.640Z,2.83
2023-01-01T14:29:46.528Z,3.13
2023-01-01T14:32:33.474Z,3.08
2023-01-01T14:35:20.373Z,3.30
2023-01-01T14:38:24.984Z,3.13
2023-01-01T14:41:23.051Z,3.28
2023-01-01T14:44:16.455Z,3.70
2023-01-01T14:47:06.030Z,3.33
2023-01-01T14:49:53.648Z,3.03
2023-01-01T14:52:42.136Z,3.20
2023-01-01T14:55:34.359Z,3.60
2023-01-01T14:58:25.993Z,2.80
2023-01-01T15:01:18.128Z,2.83
2023-01-01T15:04:21.043Z,3.20
2023-01-01T15:07:20.835Z,3.03
2023-01-01T15:10:14.979Z,2.97
2023-01-01T15:13:06.422Z,3.13
2023-01-01T15:15:57.007Z,2.97
2023-01-01T15:18:50.487Z,3.60
2023-01-01T15:21:39.966Z,3.20
2023-01-01T15:24:29.134Z,3.50
2023-01-01T15:27:31.999Z,2.90
2023-01-01T15:30:36.275Z,7.03
2023-01-01T15:33:23.642Z,5.95
2023-01-01T15:36:10.371Z,4.45
2023-01-01T15:38:57.817Z,4.10
2023-01-01T15:41:47.460Z,6.90
2023-01-01T15:44:36.523Z,4.43
2023-01-01T15:47:26.557Z,5.05
2023-01-01T15:50:30.692Z,7.10
2023-01-01T15:53:24.111Z,7.30
2023-01-01T15:56:13.511Z,7.97
2023-01-01T15:59:09.222Z,9.48
2023-01-01T16:02:15.427Z,9.20
2023-01-01T16:05:02.582Z,7.22
2023-01-01T16:08:02.359Z,6.25
2023-01-01T16:10:49.968Z,6.40
2023-01-01T16:13:36.926Z,6.43
2023-01-01T16:16:29.024Z,7.37
2023-01-01T16:19:18.474Z,6.78
2023-01-01T16:22:05.385Z,7.63
2023-01-01T16:24:52.206Z,7.97
2023-01-01T16:27:38.912Z,13.05
2023-01-01T16:30:26.969Z,14.93
2023-01-01T16:33:18.887Z,13.20
2023-01-01T16:36:09.010Z,15.23
2023-01-01T16:38:56.773Z,18.25
2023-01-01T16:41:44.385Z,15.57
2023-01-01T16:44:31.121Z,13.27
2023-01-01T16:47:17.948Z,12.85
2023-01-01T16:50:04.989Z,12.15
2023-01-01T16:52:51.734Z,12.03
2023-01-01T16:55:38.623Z,12.70
2023-01-01T16:59:00.266Z,15.15
2023-01-01T17:01:32.561Z,20.40
2023-01-01T17:04:19.534Z,24.63
2023-01-01T17:07:06.313Z,22.77
2023-01-01T17:09:53.068Z,20.08
2023-01-01T17:12:39.842Z,17.60
2023-01-01T17:15:26.595Z,18.45
2023-01-01T17:18:13.562Z,19.03
2023-01-01T17:21:05.832Z,21.10
2023-01-01T17:23:53.681Z,18.75
2023-01-01T17:29:27.128Z,14.85
2023-01-01T17:32:15.451Z,13.90
2023-01-01T17:35:02.388Z,12.50
2023-01-01T17:37:49.462Z,9.97
2023-01-01T17:40:37.144Z,12.43
2023-01-01T17:46:17.276Z,9.30
2023-01-01T17:49:04.954Z,8.20
2023-01-01T17:51:51.747Z,8.52
2023-01-01T17:54:38.495Z,8.35
2023-01-01T17:57:25.256Z,7.18
2023-01-01T18:00:12.504Z,6.50
2023-01-01T18:02:59.341Z,6.38
2023-01-01T18:05:46.192Z,8.25
2023-01-01T18:08:33.159Z,7.78
2023-01-01T18:11:19.895Z,9.13
2023-01-01T18:14:06.732Z,9.15
2023-01-01T18:16:53.461Z,9.00
2023-01-01T18:19:40.164Z,7.00
2023-01-01T18:22:26.895Z,7.57
2023-01-01T18:25:13.577Z,6.68
2023-01-01T18:28:00.293Z,6.55
2023-01-01T18:30:46.988Z,6.70
2023-01-01T18:33:34.339Z,7.20
2023-01-01T18:36:27.458Z,5.75
2023-01-01T18:39:16.403Z,5.45
2023-01-01T18:42:17.264Z,4.78
2023-01-01T18:45:25.694Z,4.60
2023-01-01T18:48:15.577Z,4.20
2023-01-01T18:51:02.716Z,10.93
2023-01-01T18:53:51.716Z,19.08
2023-01-01T18:56:39.908Z,17.30
2023-01-01T18:59:26.671Z,20.73
2023-01-01T19:02:21.009Z,15.95
2023-01-01T19:05:15.941Z,8.75
2023-01-01T19:08:09.928Z,8.38
2023-01-01T19:11:02.969Z,6.82
2023-01-01T19:14:00.864Z,6.20
2023-01-01T19:16:50.112Z,6.85
2023-01-01T19:19:41.862Z,6.57
2023-01-01T19:22:30.768Z,6.78
2023-01-01T19:25:37.893Z,5.10
2023-01-01T19:28:31.280Z,4.95
2023-01-01T19:31:19.916Z,4.65
2023-01-01T19:34:06.730Z,3.00
2023-01-01T19:36:54.902Z,3.00
2023-01-01T19:39:42.419Z,3.65
2023-01-01T19:42:30.872Z,3.55
2023-01-01T19:45:17.738Z,3.40
2023-01-01T19:48:05.895Z,3.13
2023-01-01T19:50:52.599Z,3.65
2023-01-01T19:53:40.906Z,3.75
2023-01-01T20:10:02.344Z,3.90
2023-01-01T20:18:40.218Z,3.88
2023-01-01T21:22:52.493Z,3.20
2023-01-01T22:41:02.595Z,2.80
2023-01-01T22:48:30.697Z,3.03
2023-01-01T23:06:55.806Z,2.90
2023-01-01T23:09:42.981Z,3.40
2023-01-01T23:12:29.912Z,2.97
2023-01-01T23:15:35.208Z,3.60
2023-01-01T23:18:21.970Z,3.63
2023-01-01T23:21:12.073Z,3.50
2023-01-01T23:24:00.032Z,4.10
2023-01-01T23:26:48.285Z,3.78
2023-01-01T23:29:35.915Z,4.28
2023-01-01T23:32:23.906Z,4.55
2023-01-01T23:35:11.310Z,3.90
2023-01-01T23:37:59.490Z,4.00
2023-01-01T23:40:46.253Z,4.55
2023-01-01T23:43:33.724Z,4.85
2023-01-01T23:46:23.839Z,4.05
2023-01-01T23:49:10.675Z,4.40
2023-01-01T23:51:59.835Z,4.30
2023-01-01T23:54:46.551Z,4.57
2023-01-01T23:57:34.776Z,4.50
